首页
METAR-TAF:

METAR-TAF

机场 :

Oelwein Municipal Airport

Oelwein, 艾奥瓦州, 美国

纬度: 42-40-51N, 经度: 091-58-28W, 海拔: 328米

当前天气观测

该预报发布于16分钟前的08:15 UTC
风速7节,风向东北
温度 1°C
湿度 93%
气压 1020 hPa
能見度: 16.1公里
天空无云

METAR: KOLZ 310815Z AUTO 05007KT 10SM CLR 01/00 A3011 RMK A01

时间: 03:31 (08:31 UTC)


TAF: 丢失

超过4000个机场的气象观测和天气预报(METAR&TAF报告)。

可查询的气象台以黄色和红色小点在地图上表示。

将鼠标移到小点上方,可查看气象台名称。

然后点击查看天气观测和预报。

如需切换地图:点击带黑十字的绿色按钮放大地图;点击带横线的绿色按钮缩小地图;或者点击绿色箭头查看邻近地区的地图。


METAR-TAF: